createdAt,value
2018-01-14T06:46:26.264Z,3
2018-01-14T06:46:56.218Z,0
2018-01-14T06:47:26.213Z,3
2018-01-14T06:52:56.596Z,7
2018-01-14T06:55:56.726Z,10
2018-01-14T06:57:56.885Z,13
2018-01-14T06:59:26.982Z,17
2018-01-14T07:00:57.044Z,20
2018-01-14T07:02:27.114Z,23
2018-01-14T07:03:27.174Z,27
2018-01-14T07:04:27.266Z,30
2018-01-14T07:04:57.331Z,33
2018-01-14T07:05:57.364Z,37
2018-01-14T07:06:27.460Z,40
2018-01-14T07:07:27.423Z,43
2018-01-14T07:07:57.495Z,47
2018-01-14T07:08:27.536Z,50
2018-01-14T07:08:57.544Z,53
2018-01-14T07:09:27.630Z,57
2018-01-14T07:09:57.665Z,60
2018-01-14T07:10:27.643Z,63
2018-01-14T07:10:57.682Z,67
2018-01-14T07:11:27.733Z,70
2018-01-14T07:11:57.755Z,73
2018-01-14T07:12:27.792Z,77
2018-01-14T07:12:57.847Z,80
2018-01-14T07:13:27.851Z,83
2018-01-14T07:13:57.874Z,87
2018-01-14T07:14:27.907Z,93
2018-01-14T07:14:57.922Z,97
2018-01-14T07:15:27.982Z,100
2018-01-14T07:15:57.961Z,107
2018-01-14T07:16:28.060Z,110
2018-01-14T07:16:58.063Z,117
2018-01-14T07:17:28.087Z,120
2018-01-14T07:17:58.135Z,127
2018-01-14T07:18:28.148Z,130
2018-01-14T07:18:58.182Z,133
2018-01-14T07:19:28.237Z,140
2018-01-14T07:19:58.276Z,147
2018-01-14T07:20:28.260Z,153
2018-01-14T07:20:58.325Z,160
2018-01-14T07:21:28.385Z,167
2018-01-14T07:21:58.368Z,173
2018-01-14T07:22:28.413Z,180
2018-01-14T07:22:58.379Z,187
2018-01-14T07:23:28.466Z,197
2018-01-14T07:23:58.480Z,203
2018-01-14T07:24:28.495Z,210
2018-01-14T07:24:58.524Z,213
2018-01-14T07:25:28.553Z,223
2018-01-14T07:25:58.602Z,230
2018-01-14T07:26:28.655Z,240
2018-01-14T07:26:58.670Z,247
2018-01-14T07:27:28.687Z,257
2018-01-14T07:27:58.726Z,263
2018-01-14T07:28:28.703Z,273
2018-01-14T07:28:58.755Z,280
2018-01-14T07:29:28.773Z,290
2018-01-14T07:29:58.841Z,303
2018-01-14T07:30:28.847Z,313
2018-01-14T07:30:58.884Z,323
2018-01-14T07:31:28.956Z,333
2018-01-14T07:31:58.956Z,343
2018-01-14T07:32:28.967Z,357
2018-01-14T07:32:58.993Z,367
2018-01-14T07:33:29.020Z,380
2018-01-14T07:33:59.056Z,393
2018-01-14T07:34:29.083Z,403
2018-01-14T07:34:59.162Z,413
2018-01-14T07:35:29.143Z,423
2018-01-14T07:35:59.202Z,433
2018-01-14T07:36:29.322Z,450
2018-01-14T07:36:59.238Z,467
2018-01-14T07:37:29.273Z,480
2018-01-14T07:37:59.337Z,497
2018-01-14T07:38:29.348Z,510
2018-01-14T07:38:59.409Z,523
2018-01-14T07:39:29.402Z,537
2018-01-14T07:39:59.545Z,557
2018-01-14T07:40:29.488Z,570
2018-01-14T07:40:59.529Z,587
2018-01-14T07:41:29.561Z,603
2018-01-14T07:41:59.585Z,613
2018-01-14T07:42:29.610Z,627
2018-01-14T07:42:59.677Z,640
2018-01-14T07:43:29.669Z,657
2018-01-14T07:43:59.678Z,670
2018-01-14T07:44:29.748Z,683
2018-01-14T07:44:59.745Z,697
2018-01-14T07:45:29.755Z,710
2018-01-14T07:45:59.840Z,727
2018-01-14T07:46:29.843Z,740
2018-01-14T07:46:59.859Z,757
2018-01-14T07:47:29.876Z,770
2018-01-14T07:47:59.911Z,783
2018-01-14T07:48:29.991Z,800
2018-01-14T07:49:00.021Z,813
2018-01-14T07:49:29.985Z,830
2018-01-14T07:50:00.092Z,850
2018-01-14T07:50:30.132Z,870
2018-01-14T07:51:00.103Z,887
2018-01-14T07:51:30.175Z,907
2018-01-14T07:52:00.170Z,930
2018-01-14T07:52:30.203Z,963
2018-01-14T07:53:00.921Z,983
2018-01-14T07:53:30.242Z,997
2018-01-14T07:54:00.564Z,1000
2018-01-14T07:54:30.307Z,1027
2018-01-14T07:55:00.864Z,1043
2018-01-14T07:55:30.367Z,1083
2018-01-14T07:56:00.800Z,1123
2018-01-14T07:56:30.522Z,1150
2018-01-14T07:57:00.859Z,1180
2018-01-14T07:57:30.566Z,1183
2018-01-14T07:58:00.820Z,1187
2018-01-14T07:59:00.850Z,1200
2018-01-14T07:59:30.693Z,1223
2018-01-14T08:00:00.787Z,1253
2018-01-14T08:00:30.715Z,1280
2018-01-14T08:01:00.722Z,1307
2018-01-14T08:01:30.829Z,1333
2018-01-14T08:02:00.954Z,1343
2018-01-14T08:02:30.846Z,1363
2018-01-14T08:03:00.857Z,1377
2018-01-14T08:03:30.917Z,1390
2018-01-14T08:04:00.905Z,1413
2018-01-14T08:04:30.961Z,1440
2018-01-14T08:05:00.969Z,1467
2018-01-14T08:05:31.047Z,1483
2018-01-14T08:06:01.057Z,1490
2018-01-14T08:06:31.106Z,1503
2018-01-14T08:07:01.166Z,1530
2018-01-14T08:07:31.142Z,1560
2018-01-14T08:08:01.147Z,1570
2018-01-14T08:08:31.206Z,1577
2018-01-14T08:09:01.250Z,1600
2018-01-14T08:09:31.295Z,1630
2018-01-14T08:10:01.277Z,1670
2018-01-14T08:10:31.310Z,1707
2018-01-14T08:11:01.369Z,1727
2018-01-14T08:11:31.485Z,1747
2018-01-14T08:12:01.401Z,1770
2018-01-14T08:12:31.462Z,1797
2018-01-14T08:13:01.465Z,1827
2018-01-14T08:13:31.515Z,1850
2018-01-14T08:14:01.501Z,1870
2018-01-14T08:14:31.577Z,1897
2018-01-14T08:15:01.616Z,1930
2018-01-14T08:15:31.620Z,1987
2018-01-14T08:16:01.643Z,2080
2018-01-14T08:16:31.752Z,2173
2018-01-14T08:17:01.760Z,2263
2018-01-14T08:17:31.767Z,2280
2018-01-14T08:18:01.764Z,2270
2018-01-14T08:18:31.844Z,2297
2018-01-14T08:19:01.843Z,2367
2018-01-14T08:19:31.838Z,2500
2018-01-14T08:20:01.895Z,2560
2018-01-14T08:20:31.944Z,2683
2018-01-14T08:21:01.941Z,2723
2018-01-14T08:21:32.023Z,2617
2018-01-14T08:22:02.071Z,2630
2018-01-14T08:22:32.025Z,2593
2018-01-14T08:23:02.082Z,2577
2018-01-14T08:23:32.093Z,2670
2018-01-14T08:24:02.162Z,2823
2018-01-14T08:24:32.137Z,2897
2018-01-14T08:25:02.224Z,3020
2018-01-14T08:25:32.207Z,2987
2018-01-14T08:26:02.264Z,2967
2018-01-14T08:26:34.765Z,2990
2018-01-14T08:27:02.369Z,3047
2018-01-14T08:27:32.345Z,3117
2018-01-14T08:28:02.443Z,3073
2018-01-14T08:28:32.443Z,3083
2018-01-14T08:29:02.474Z,3027
2018-01-14T08:29:32.520Z,2947
2018-01-14T08:30:02.530Z,3153
2018-01-14T08:30:32.507Z,3147
2018-01-14T08:31:02.573Z,3090
2018-01-14T08:31:32.603Z,3040
2018-01-14T08:32:02.717Z,3003
2018-01-14T08:32:32.654Z,3113
2018-01-14T08:33:02.690Z,3173
2018-01-14T08:33:32.728Z,3203
2018-01-14T08:34:02.771Z,3287
2018-01-14T08:34:32.768Z,3343
2018-01-14T08:35:02.806Z,3363
2018-01-14T08:35:32.868Z,3280
2018-01-14T08:36:02.862Z,3387
2018-01-14T08:36:32.890Z,3403
2018-01-14T08:37:03.079Z,3550
2018-01-14T08:37:32.952Z,3753
2018-01-14T08:38:03.011Z,3757
2018-01-14T08:38:33.003Z,3887
2018-01-14T08:39:03.059Z,3903
2018-01-14T08:39:33.064Z,3767
2018-01-14T08:40:03.119Z,3847
2018-01-14T08:40:33.235Z,3920
2018-01-14T08:41:03.210Z,3967
2018-01-14T08:41:33.217Z,4053
2018-01-14T08:42:03.257Z,4210
2018-01-14T08:42:33.260Z,4320
2018-01-14T08:43:03.337Z,4467
2018-01-14T08:43:33.419Z,4527
2018-01-14T08:44:03.416Z,4467
2018-01-14T08:44:33.453Z,4440
2018-01-14T08:45:03.446Z,4433
2018-01-14T08:45:33.478Z,4340
2018-01-14T08:46:03.572Z,4287
2018-01-14T08:46:33.519Z,4300
2018-01-14T08:47:03.626Z,4383
2018-01-14T08:47:33.620Z,4380
2018-01-14T08:48:03.697Z,4430
2018-01-14T08:48:33.683Z,4560
2018-01-14T08:49:03.703Z,4643
2018-01-14T08:49:33.723Z,4717
2018-01-14T08:50:03.778Z,4813
2018-01-14T08:50:33.798Z,4857
2018-01-14T08:51:03.854Z,5027
2018-01-14T08:51:33.828Z,4940
2018-01-14T08:52:03.865Z,5053
2018-01-14T08:52:33.875Z,4937
2018-01-14T08:53:04.046Z,4950
2018-01-14T08:53:33.946Z,4957
2018-01-14T08:54:04.005Z,5073
2018-01-14T08:54:34.057Z,5190
2018-01-14T08:55:04.073Z,5360
2018-01-14T08:55:34.125Z,5313
2018-01-14T08:56:04.139Z,5423
2018-01-14T08:56:34.165Z,5390
2018-01-14T08:57:04.182Z,5500
2018-01-14T08:57:34.201Z,5667
2018-01-14T08:58:04.279Z,5950
2018-01-14T08:58:34.268Z,6087
2018-01-14T08:59:04.329Z,6217
2018-01-14T09:00:04.331Z,6400
2018-01-14T09:01:04.411Z,6307
2018-01-14T09:01:34.462Z,6263
2018-01-14T09:02:04.682Z,6327
2018-01-14T09:02:34.505Z,6557
2018-01-14T09:03:04.563Z,6667
2018-01-14T09:03:34.581Z,6727
2018-01-14T09:04:04.628Z,6640
2018-01-14T09:04:34.612Z,6637
2018-01-14T09:05:04.664Z,6613
2018-01-14T09:05:34.705Z,6650
2018-01-14T09:06:04.732Z,6850
2018-01-14T09:06:34.729Z,6720
2018-01-14T09:07:04.780Z,6687
2018-01-14T09:07:34.802Z,6743
2018-01-14T09:08:04.886Z,6720
2018-01-14T09:08:34.851Z,6703
2018-01-14T09:09:04.889Z,6643
2018-01-14T09:09:34.910Z,6817
2018-01-14T09:10:05.028Z,6763
2018-01-14T09:10:34.990Z,6313
2018-01-14T09:11:05.031Z,6193
2018-01-14T09:11:35.040Z,6353
2018-01-14T09:12:05.077Z,6680
2018-01-14T09:12:35.104Z,6910
2018-01-14T09:13:05.229Z,7040
2018-01-14T09:13:35.151Z,7027
2018-01-14T09:14:05.285Z,6750
2018-01-14T09:14:35.282Z,6930
2018-01-14T09:15:05.269Z,7120
2018-01-14T09:15:35.327Z,6940
2018-01-14T09:16:05.345Z,7213
2018-01-14T09:16:35.401Z,7490
2018-01-14T09:17:05.466Z,7590
2018-01-14T09:17:35.449Z,7620
2018-01-14T09:18:05.505Z,7607
2018-01-14T09:18:35.539Z,7943
2018-01-14T09:19:05.613Z,7637
2018-01-14T09:19:35.586Z,7890
2018-01-14T09:20:05.613Z,8157
2018-01-14T09:20:35.638Z,8277
2018-01-14T09:21:05.652Z,8420
2018-01-14T09:21:35.698Z,8553
2018-01-14T09:22:05.704Z,8533
2018-01-14T09:23:05.776Z,8500
2018-01-14T09:23:35.764Z,8600
2018-01-14T09:24:05.818Z,8463
2018-01-14T09:24:35.902Z,8740
2018-01-14T09:25:05.912Z,8640
2018-01-14T09:25:35.883Z,8870
2018-01-14T09:26:05.995Z,8903
2018-01-14T09:26:35.962Z,8587
2018-01-14T09:27:06.050Z,8817
2018-01-14T09:27:36.030Z,8840
2018-01-14T09:28:06.050Z,8560
2018-01-14T09:28:36.068Z,8787
2018-01-14T09:29:06.153Z,9037
2018-01-14T09:29:36.198Z,8873
2018-01-14T09:30:06.250Z,8837
2018-01-14T09:30:36.238Z,8850
2018-01-14T09:31:06.383Z,8780
2018-01-14T09:31:36.247Z,8957
2018-01-14T09:32:06.409Z,8867
2018-01-14T09:32:36.363Z,8770
2018-01-14T09:33:06.406Z,8833
2018-01-14T09:33:36.433Z,8370
2018-01-14T09:34:06.540Z,8523
2018-01-14T09:34:36.751Z,8473
2018-01-14T09:35:06.577Z,8733
2018-01-14T09:35:36.538Z,8880
2018-01-14T09:36:06.604Z,8417
2018-01-14T09:36:36.699Z,5790
2018-01-14T09:37:06.864Z,7527
2018-01-14T09:37:36.995Z,7497
2018-01-14T09:38:07.052Z,7067
2018-01-14T09:38:36.907Z,6497
2018-01-14T09:39:06.972Z,6163
2018-01-14T09:39:37.045Z,6123
2018-01-14T09:40:07.049Z,5970
2018-01-14T09:40:37.045Z,5837
2018-01-14T09:41:07.385Z,5793
2018-01-14T09:41:37.436Z,5763
2018-01-14T09:42:07.217Z,5777
2018-01-14T09:42:37.237Z,5783
2018-01-14T09:43:07.267Z,5757
2018-01-14T09:43:37.280Z,5870
2018-01-14T09:44:07.324Z,5850
2018-01-14T09:44:37.569Z,5903
2018-01-14T09:45:07.406Z,5893
2018-01-14T09:45:37.366Z,5873
2018-01-14T09:46:07.508Z,5893
2018-01-14T09:46:37.467Z,5957
2018-01-14T09:47:07.524Z,5873
2018-01-14T09:47:37.617Z,5930
2018-01-14T09:48:07.560Z,5893
2018-01-14T09:48:37.573Z,5797
2018-01-14T09:49:07.584Z,5837
2018-01-14T09:49:37.702Z,5750
2018-01-14T09:50:07.661Z,5903
2018-01-14T09:50:37.730Z,5870
2018-01-14T09:51:07.730Z,5927
2018-01-14T09:51:37.725Z,6043
2018-01-14T09:52:07.905Z,6037
2018-01-14T09:52:37.798Z,5890
2018-01-14T09:53:07.897Z,5787
2018-01-14T09:53:37.879Z,5713
2018-01-14T09:54:07.911Z,5743
2018-01-14T09:54:37.981Z,5730
2018-01-14T09:55:07.967Z,5713
2018-01-14T09:55:37.968Z,5730
2018-01-14T09:56:08.028Z,5667
2018-01-14T09:56:38.069Z,5547
2018-01-14T09:57:08.145Z,5483
2018-01-14T09:57:38.107Z,5467
2018-01-14T09:58:08.168Z,5457
2018-01-14T09:58:38.188Z,5467
2018-01-14T09:59:38.287Z,5433
2018-01-14T10:00:08.353Z,5417
2018-01-14T10:00:38.376Z,5373
2018-01-14T10:01:08.371Z,5390
2018-01-14T10:01:38.347Z,5440
2018-01-14T10:02:08.449Z,5460
2018-01-14T10:02:38.497Z,5490
2018-01-14T10:03:08.455Z,5493
2018-01-14T10:03:38.481Z,5433
2018-01-14T10:04:08.576Z,5440
2018-01-14T10:04:38.569Z,5450
2018-01-14T10:05:08.605Z,5373
2018-01-14T10:05:38.674Z,5333
2018-01-14T10:06:08.702Z,5290
2018-01-14T10:06:38.804Z,5293
2018-01-14T10:07:08.743Z,5330
2018-01-14T10:08:08.752Z,5333
2018-01-14T10:08:38.831Z,5410
2018-01-14T10:09:08.870Z,5530
2018-01-14T10:09:38.888Z,5597
2018-01-14T10:10:08.874Z,5567
2018-01-14T10:10:38.915Z,5553
2018-01-14T10:11:08.948Z,5557
2018-01-14T10:11:38.967Z,5570
2018-01-14T10:12:09.005Z,5590
2018-01-14T10:12:39.033Z,5580
2018-01-14T10:13:09.071Z,5607
2018-01-14T10:13:39.081Z,5613
2018-01-14T10:14:09.129Z,5590
2018-01-14T10:14:39.222Z,5553
2018-01-14T10:15:09.220Z,5463
2018-01-14T10:15:39.232Z,5393
2018-01-14T10:16:09.262Z,5437
2018-01-14T10:16:39.295Z,5467
2018-01-14T10:17:09.339Z,5493
2018-01-14T10:17:39.414Z,5533
2018-01-14T10:18:09.434Z,5593
2018-01-14T10:18:39.446Z,5577
2018-01-14T10:19:09.531Z,5550
2018-01-14T10:19:39.605Z,5500
2018-01-14T10:20:09.533Z,5493
2018-01-14T10:20:39.628Z,5490
2018-01-14T10:21:09.645Z,5503
2018-01-14T10:21:39.718Z,5557
2018-01-14T10:22:09.803Z,5510
2018-01-14T10:22:39.739Z,5453
2018-01-14T10:23:09.957Z,5393
2018-01-14T10:23:39.929Z,5347
2018-01-14T10:24:09.927Z,5337
2018-01-14T10:24:39.969Z,5333
2018-01-14T10:25:09.940Z,5337
2018-01-14T10:25:39.991Z,5333
2018-01-14T10:26:09.980Z,5313
2018-01-14T10:26:40.010Z,5303
2018-01-14T10:27:10.059Z,5260
2018-01-14T10:27:40.129Z,5250
2018-01-14T10:28:10.128Z,5253
2018-01-14T10:28:40.103Z,5267
2018-01-14T10:29:10.184Z,5277
2018-01-14T10:29:40.173Z,5263
2018-01-14T10:30:10.234Z,5283
2018-01-14T10:30:40.246Z,5320
2018-01-14T10:31:10.295Z,5297
2018-01-14T10:31:40.319Z,5243
2018-01-14T10:32:10.363Z,5197
2018-01-14T10:32:40.465Z,5210
2018-01-14T10:33:10.380Z,5223
2018-01-14T10:33:40.401Z,5233
2018-01-14T10:34:10.495Z,5257
2018-01-14T10:34:40.472Z,5287
2018-01-14T10:35:10.560Z,5310
2018-01-14T10:35:40.518Z,5333
2018-01-14T10:36:10.625Z,5343
2018-01-14T10:36:40.620Z,5377
2018-01-14T10:37:40.669Z,5417
2018-01-14T10:38:10.787Z,5457
2018-01-14T10:38:40.738Z,5467
2018-01-14T10:39:10.758Z,5483
2018-01-14T10:39:40.798Z,5477
2018-01-14T10:40:10.893Z,5437
2018-01-14T10:41:10.904Z,5490
2018-01-14T10:41:40.899Z,5540
2018-01-14T10:42:10.928Z,5603
2018-01-14T10:42:41.057Z,5667
2018-01-14T10:43:11.036Z,5757
2018-01-14T10:43:41.101Z,5783
2018-01-14T10:44:11.074Z,5787
2018-01-14T10:44:41.097Z,5770
2018-01-14T10:45:11.178Z,5793
2018-01-14T10:45:41.195Z,5850
2018-01-14T10:46:11.206Z,5873
2018-01-14T10:46:41.224Z,5870
2018-01-14T10:47:11.277Z,5833
2018-01-14T10:47:41.340Z,5790
2018-01-14T10:48:11.339Z,5783
2018-01-14T10:48:41.413Z,5773
2018-01-14T10:49:11.410Z,5790
2018-01-14T10:49:41.457Z,5800
2018-01-14T10:50:11.690Z,5797
2018-01-14T10:50:41.704Z,5760
2018-01-14T10:51:11.807Z,5783
2018-01-14T10:51:41.823Z,5830
2018-01-14T10:52:11.824Z,5887
2018-01-14T10:52:41.931Z,5930
2018-01-14T10:53:11.875Z,5943
2018-01-14T10:53:41.950Z,5913
2018-01-14T10:54:11.984Z,5900
2018-01-14T10:54:41.960Z,5877
2018-01-14T10:55:11.988Z,5890
2018-01-14T10:55:42.026Z,5863
2018-01-14T10:56:12.067Z,5890
2018-01-14T10:56:42.084Z,5960
2018-01-14T10:57:12.115Z,5953
2018-01-14T10:57:42.221Z,5970
2018-01-14T10:58:12.183Z,5980
2018-01-14T10:58:42.269Z,5970
2018-01-14T10:59:12.411Z,5993
2018-01-14T10:59:42.293Z,5960
2018-01-14T11:00:12.340Z,5970
2018-01-14T11:00:42.310Z,6053
2018-01-14T11:01:12.405Z,6123
2018-01-14T11:01:42.393Z,6110
2018-01-14T11:02:12.447Z,6130
2018-01-14T11:02:42.514Z,6147
2018-01-14T11:03:12.568Z,6150
2018-01-14T11:03:42.579Z,6130
2018-01-14T11:04:12.579Z,6113
2018-01-14T11:05:12.834Z,6143
2018-01-14T11:05:42.677Z,6223
2018-01-14T11:06:12.744Z,6277
2018-01-14T11:06:42.740Z,6297
2018-01-14T11:07:12.768Z,6377
2018-01-14T11:07:42.801Z,6423
2018-01-14T11:08:12.828Z,6367
2018-01-14T11:08:42.838Z,6357
2018-01-14T11:09:12.907Z,6360
2018-01-14T11:09:42.940Z,6323
2018-01-14T11:10:42.973Z,6320
2018-01-14T11:11:13.028Z,6297
2018-01-14T11:11:43.042Z,6287
2018-01-14T11:12:13.068Z,6223
2018-01-14T11:12:43.175Z,6197
2018-01-14T11:13:13.141Z,6183
2018-01-14T11:13:43.146Z,6133
2018-01-14T11:14:13.202Z,6110
2018-01-14T11:14:43.313Z,6080
2018-01-14T11:15:13.259Z,6023
2018-01-14T11:15:43.360Z,5953
2018-01-14T11:16:13.327Z,5937
2018-01-14T11:16:43.342Z,5930
2018-01-14T11:17:13.367Z,5907
2018-01-14T11:17:43.441Z,5860
2018-01-14T11:18:13.446Z,5857
2018-01-14T11:18:43.547Z,5917
2018-01-14T11:19:13.536Z,5927
2018-01-14T11:19:43.801Z,6003
2018-01-14T11:20:13.580Z,6110
2018-01-14T11:20:43.632Z,6153
2018-01-14T11:21:13.645Z,6180
2018-01-14T11:21:43.694Z,6237
2018-01-14T11:22:13.648Z,6203
2018-01-14T11:22:44.114Z,6230
2018-01-14T11:23:13.727Z,6243
2018-01-14T11:23:43.776Z,6223
2018-01-14T11:24:43.846Z,6210
2018-01-14T11:25:13.844Z,6217
2018-01-14T11:25:43.888Z,6223
2018-01-14T11:26:13.901Z,6243
2018-01-14T11:26:43.979Z,6263
2018-01-14T11:27:13.958Z,6277
2018-01-14T11:27:44.047Z,6263
2018-01-14T11:28:14.023Z,6250
2018-01-14T11:28:44.124Z,6277
2018-01-14T11:29:14.080Z,6223
2018-01-14T11:29:44.172Z,6187
2018-01-14T11:30:14.178Z,6103
2018-01-14T11:30:44.345Z,6107
2018-01-14T11:31:14.226Z,6113
2018-01-14T11:31:44.339Z,6100
2018-01-14T11:32:14.271Z,6133
2018-01-14T11:32:44.310Z,6157
2018-01-14T11:33:14.336Z,6197
2018-01-14T11:33:44.517Z,6287
2018-01-14T11:34:14.486Z,6227
2018-01-14T11:34:44.492Z,6203
2018-01-14T11:35:14.494Z,6193
2018-01-14T11:35:44.522Z,6207
2018-01-14T11:36:14.541Z,6183
2018-01-14T11:36:44.634Z,6153
2018-01-14T11:37:14.593Z,6223
2018-01-14T11:37:44.680Z,6317
2018-01-14T11:38:14.666Z,6313
2018-01-14T11:38:44.730Z,6327
2018-01-14T11:39:14.696Z,6393
2018-01-14T11:39:44.757Z,6343
2018-01-14T11:40:14.776Z,6320
2018-01-14T11:40:44.834Z,6297
2018-01-14T11:41:14.835Z,6287
2018-01-14T11:42:14.892Z,6307
2018-01-14T11:42:44.967Z,6287
2018-01-14T11:43:15.027Z,6327
2018-01-14T11:43:45.021Z,6313
2018-01-14T11:44:15.087Z,6260
2018-01-14T11:44:45.079Z,6233
2018-01-14T11:45:15.108Z,6230
2018-01-14T11:45:45.154Z,6267
2018-01-14T11:46:15.154Z,6310
2018-01-14T11:46:45.193Z,6277
2018-01-14T11:47:15.204Z,6243
2018-01-14T11:47:45.246Z,6217
2018-01-14T11:48:15.356Z,6263
2018-01-14T11:48:45.402Z,6237
2018-01-14T11:49:15.452Z,6173
2018-01-14T11:49:45.438Z,6153
2018-01-14T11:50:15.495Z,6130
2018-01-14T11:50:45.544Z,6150
2018-01-14T11:51:15.558Z,6180
2018-01-14T11:51:45.622Z,6160
2018-01-14T11:52:15.605Z,6067
2018-01-14T11:52:45.609Z,6077
2018-01-14T11:53:15.663Z,6117
2018-01-14T11:53:45.682Z,6157
2018-01-14T11:54:15.691Z,6183
2018-01-14T11:54:45.788Z,6153
2018-01-14T11:55:15.817Z,6163
2018-01-14T11:55:45.878Z,6117
2018-01-14T11:56:15.855Z,6070
2018-01-14T11:56:45.850Z,6123
2018-01-14T11:57:15.904Z,6120
2018-01-14T11:57:45.944Z,6127
2018-01-14T11:58:15.934Z,6087
2018-01-14T11:58:46.028Z,6153
2018-01-14T11:59:46.067Z,6187
2018-01-14T12:00:16.153Z,6223
2018-01-14T12:00:46.154Z,6300
2018-01-14T12:01:16.200Z,6283
2018-01-14T12:01:46.180Z,6320
2018-01-14T12:02:16.307Z,6303
2018-01-14T12:02:46.200Z,6207
2018-01-14T12:03:16.358Z,6210
2018-01-14T12:03:46.303Z,6163
2018-01-14T12:04:16.379Z,6170
2018-01-14T12:04:46.375Z,6193
2018-01-14T12:05:16.467Z,6160
2018-01-14T12:05:46.538Z,6163
2018-01-14T12:06:16.542Z,6153
2018-01-14T12:06:46.599Z,6097
2018-01-14T12:07:16.804Z,6063
2018-01-14T12:07:46.534Z,5973
2018-01-14T12:08:16.640Z,6043
2018-01-14T12:08:46.619Z,6040
2018-01-14T12:09:16.744Z,5953
2018-01-14T12:09:46.623Z,5687
2018-01-14T12:10:16.726Z,5937
2018-01-14T12:10:46.709Z,5947
2018-01-14T12:11:16.736Z,5923
2018-01-14T12:11:46.804Z,5893
2018-01-14T12:12:16.864Z,5890
2018-01-14T12:12:46.865Z,5853
2018-01-14T12:13:16.866Z,5827
2018-01-14T12:13:46.928Z,5840
2018-01-14T12:14:17.129Z,5880
2018-01-14T12:14:46.937Z,5913
2018-01-14T12:15:16.973Z,5900
2018-01-14T12:15:47.027Z,5827
2018-01-14T12:16:47.064Z,5760
2018-01-14T12:17:17.100Z,5697
2018-01-14T12:17:47.384Z,5653
2018-01-14T12:18:17.254Z,5610
2018-01-14T12:18:47.261Z,5560
2018-01-14T12:19:17.265Z,5550
2018-01-14T12:19:47.295Z,5510
2018-01-14T12:20:17.431Z,5493
2018-01-14T12:20:47.421Z,5447
2018-01-14T12:21:17.418Z,5457
2018-01-14T12:21:47.439Z,5520
2018-01-14T12:22:17.480Z,5487
2018-01-14T12:22:47.602Z,5447
2018-01-14T12:23:17.515Z,5457
2018-01-14T12:23:47.525Z,5473
2018-01-14T12:24:17.534Z,5540
2018-01-14T12:24:47.562Z,5620
2018-01-14T12:25:17.605Z,5633
2018-01-14T12:25:47.766Z,5657
2018-01-14T12:26:17.727Z,5647
2018-01-14T12:26:47.688Z,5593
2018-01-14T12:27:17.742Z,5573
2018-01-14T12:27:47.795Z,5577
2018-01-14T12:28:17.809Z,5597
2018-01-14T12:28:47.777Z,5617
2018-01-14T12:29:17.916Z,5583
2018-01-14T12:29:47.935Z,5603
2018-01-14T12:30:17.886Z,5617
2018-01-14T12:30:47.924Z,5570
2018-01-14T12:31:17.968Z,5537
2018-01-14T12:31:47.970Z,5577
2018-01-14T12:32:18.025Z,5533
2018-01-14T12:32:48.042Z,5523
2018-01-14T12:33:18.093Z,5623
2018-01-14T12:33:48.151Z,5617
2018-01-14T12:34:18.197Z,5587
2018-01-14T12:34:48.256Z,5547
2018-01-14T12:35:18.311Z,5557
2018-01-14T12:35:48.332Z,5513
2018-01-14T12:36:18.291Z,5490
2018-01-14T12:36:48.318Z,5443
2018-01-14T12:37:18.309Z,5437
2018-01-14T12:37:48.342Z,5447
2018-01-14T12:38:18.448Z,5443
2018-01-14T12:38:48.446Z,5410
2018-01-14T12:39:18.509Z,5370
2018-01-14T12:39:48.491Z,5390
2018-01-14T12:40:18.569Z,5430
2018-01-14T12:40:48.556Z,5390
2018-01-14T12:41:18.624Z,5373
2018-01-14T12:41:48.613Z,5353
2018-01-14T12:42:18.691Z,5317
2018-01-14T12:42:48.735Z,5293
2018-01-14T12:43:18.744Z,5283
2018-01-14T12:43:48.776Z,5303
2018-01-14T12:44:18.912Z,5280
2018-01-14T12:44:48.793Z,5237
2018-01-14T12:45:18.855Z,5217
2018-01-14T12:45:48.900Z,5200
2018-01-14T12:46:18.997Z,5193
2018-01-14T12:46:48.936Z,5173
2018-01-14T12:47:18.958Z,5160
2018-01-14T12:47:48.983Z,5177
2018-01-14T12:48:19.048Z,5200
2018-01-14T12:48:49.074Z,5203
2018-01-14T12:49:19.128Z,5230
2018-01-14T12:49:49.204Z,5243
2018-01-14T12:50:19.293Z,5233
2018-01-14T12:51:49.247Z,5207
2018-01-14T12:52:19.386Z,5180
2018-01-14T12:52:49.333Z,5157
2018-01-14T12:53:19.369Z,5170
2018-01-14T12:53:49.402Z,5167
2018-01-14T12:54:19.442Z,5157
2018-01-14T12:54:49.436Z,5200
2018-01-14T12:55:19.503Z,5207
2018-01-14T12:55:49.460Z,5237
2018-01-14T12:56:49.539Z,5230
2018-01-14T12:57:19.624Z,5250
2018-01-14T12:57:49.597Z,5303
2018-01-14T12:58:19.817Z,5290
2018-01-14T12:58:49.936Z,5317
2018-01-14T12:59:19.677Z,5333
2018-01-14T12:59:49.727Z,5310
2018-01-14T13:00:19.750Z,5337
2018-01-14T13:00:49.800Z,5323
2018-01-14T13:01:19.882Z,5307
2018-01-14T13:01:49.827Z,5290
2018-01-14T13:02:19.859Z,5330
2018-01-14T13:02:49.873Z,5410
2018-01-14T13:03:20.031Z,5617
2018-01-14T13:03:50.015Z,5763
2018-01-14T13:04:19.983Z,5740
2018-01-14T13:04:50.027Z,5800
2018-01-14T13:05:20.038Z,5913
2018-01-14T13:05:50.073Z,6113
2018-01-14T13:06:20.146Z,6460
2018-01-14T13:06:50.113Z,6880
2018-01-14T13:07:20.210Z,7197
2018-01-14T13:07:50.208Z,7240
2018-01-14T13:08:20.337Z,7390
2018-01-14T13:08:50.353Z,7553
2018-01-14T13:09:20.386Z,7687
2018-01-14T13:09:50.327Z,7800
2018-01-14T13:10:20.369Z,8310
2018-01-14T13:10:50.409Z,8383
2018-01-14T13:11:20.459Z,8673
2018-01-14T13:11:50.535Z,8840
2018-01-14T13:12:20.518Z,8880
2018-01-14T13:12:50.529Z,8833
2018-01-14T13:13:20.655Z,8643
2018-01-14T13:13:50.547Z,8937
2018-01-14T13:14:20.667Z,8920
2018-01-14T13:14:50.650Z,8893
2018-01-14T13:15:20.653Z,9197
2018-01-14T13:15:50.707Z,9137
2018-01-14T13:16:20.832Z,9350
2018-01-14T13:16:50.889Z,9080
2018-01-14T13:17:20.806Z,9147
2018-01-14T13:17:51.044Z,9327
2018-01-14T13:18:21.107Z,8670
2018-01-14T13:18:51.074Z,9070
2018-01-14T13:19:20.931Z,9007
2018-01-14T13:19:50.941Z,8613
2018-01-14T13:20:21.054Z,8827
2018-01-14T13:20:51.020Z,9113
2018-01-14T13:21:21.083Z,9063
2018-01-14T13:21:51.090Z,9147
2018-01-14T13:22:21.273Z,9017
2018-01-14T13:22:51.140Z,8827
2018-01-14T13:23:21.203Z,8567
2018-01-14T13:23:51.262Z,7037
2018-01-14T13:24:21.257Z,8393
2018-01-14T13:24:51.364Z,8530
2018-01-14T13:25:21.310Z,8273
2018-01-14T13:25:51.437Z,8557
2018-01-14T13:26:21.400Z,8133
2018-01-14T13:26:51.445Z,8383
2018-01-14T13:27:21.460Z,8487
2018-01-14T13:27:51.679Z,8343
2018-01-14T13:28:21.558Z,8090
2018-01-14T13:28:51.569Z,8313
2018-01-14T13:29:21.748Z,8230
2018-01-14T13:29:51.721Z,8137
2018-01-14T13:30:21.805Z,7977
2018-01-14T13:30:51.961Z,7927
2018-01-14T13:31:21.799Z,8010
2018-01-14T13:31:51.788Z,4977
2018-01-14T13:32:21.874Z,7343
2018-01-14T13:32:51.928Z,7770
2018-01-14T13:33:21.928Z,7460
2018-01-14T13:33:51.964Z,7490
2018-01-14T13:34:22.044Z,7257
2018-01-14T13:34:52.059Z,7193
2018-01-14T13:35:22.138Z,7320
2018-01-14T13:35:52.036Z,7513
2018-01-14T13:36:22.148Z,7210
2018-01-14T13:36:52.149Z,6747
2018-01-14T13:37:22.246Z,6880
2018-01-14T13:37:52.151Z,7160
2018-01-14T13:38:22.233Z,7040
2018-01-14T13:38:52.285Z,6733
2018-01-14T13:39:22.301Z,6017
2018-01-14T13:39:52.336Z,6347
2018-01-14T13:40:22.389Z,6203
2018-01-14T13:40:52.390Z,6730
2018-01-14T13:41:22.455Z,6900
2018-01-14T13:41:52.500Z,6503
2018-01-14T13:42:22.541Z,6313
2018-01-14T13:42:52.501Z,6123
2018-01-14T13:43:22.906Z,6150
2018-01-14T13:43:52.623Z,5180
2018-01-14T13:44:22.640Z,3907
2018-01-14T13:44:52.706Z,4190
2018-01-14T13:45:22.715Z,4413
2018-01-14T13:45:52.765Z,3810
2018-01-14T13:46:22.808Z,4983
2018-01-14T13:46:52.761Z,5783
2018-01-14T13:47:22.794Z,4983
2018-01-14T13:47:52.816Z,5760
2018-01-14T13:48:22.908Z,4053
2018-01-14T13:48:52.871Z,3727
2018-01-14T13:49:22.910Z,3813
2018-01-14T13:49:52.914Z,4967
2018-01-14T13:50:23.051Z,4637
2018-01-14T13:50:53.010Z,4727